Flight Track Log - Related Links

Times and Time Zones

All times are in EDT time to prevent confusion due to time zone crossing. See the JIA2566 flight status page for this flight to view local times or setup timezone preferences in your user account.

Time Position Orientation Groundspeed Altitude Reporting Facility
EDT Latitude Longitude Course Direction KTS MPH feet Rate Location/Type
Sat 10:41:49 PM 35.1972 -80.9381 168° South 155 178 1,400  Level Atlanta Center
Sat 10:42:38 PM 35.1531 -80.9269 168° South 186 214 2,700 1,820 Climbing Atlanta Center
Sat 10:43:18 PM 35.1292 -80.8922 130° Southeast 246 283 4,100 2,280 Climbing Atlanta Center
Sat 10:44:18 PM 35.1125 -80.8067 103° East 271 312 6,500 2,400 Climbing Atlanta Center
Sat 10:45:18 PM 35.0933 -80.7133 104° East 298 343 8,900 1,823 Climbing Atlanta Center
Sat 10:46:56 PM 35.0622 -80.5478 103° East 315 362 11,300 1,605 Climbing Washington Center
Sat 10:47:55 PM 35.0342 -80.4167 105° East 348 400 13,100 1,800 Climbing Washington Center
Sat 10:48:56 PM 35.0161 -80.2964 100° East 382 440 14,900 1,884 Climbing Washington Center
Sat 10:49:56 PM 34.9883 -80.1475 103° East 397 457 16,900 1,041 Climbing Washington Center
Sat 10:50:57 PM 34.9553 -80.0292 109° East 402 463 17,000 50 Climbing Washington Center
Sat 10:51:55 PM 34.9086 -79.8822 111° Southeast 410 472 17,000  Level Washington Center
Sat 10:52:58 PM 34.8692 -79.7536 110° East 410 472 17,000  Level Washington Center
Sat 10:53:55 PM 34.8317 -79.6303 110° East 404 465 17,000  Level Washington Center
Sat 10:54:57 PM 34.7922 -79.5069 111° Southeast 393 452 17,000  Level Washington Center
Sat 10:55:55 PM 34.7522 -79.3836 112° Southeast 393 452 17,000  Level Washington Center
Sat 10:56:56 PM 34.7144 -79.2606 110° East 393 452 17,000  Level Washington Center
Sat 10:57:58 PM 34.6742 -79.1403 112° Southeast 393 452 17,000  Level Washington Center
Sat 10:58:57 PM 34.6381 -79.0200 110° East 387 445 17,000  Level Washington Center
Sat 10:59:57 PM 34.6036 -78.9125 111° Southeast 382 440 17,000  Level Washington Center
Sat 11:00:56 PM 34.5897 -78.8111 99° East 371 427 17,000  Level Washington Center
Sat 11:01:55 PM 34.5747 -78.6592 97° East 371 427 17,000 -200 Level Washington Center
Sat 11:02:56 PM 34.5617 -78.5225 97° East 371 427 16,600 -1,150 Descending Washington Center
Sat 11:03:55 PM 34.5494 -78.4136 98° East 366 421 14,700 -1,967 Descending Washington Center
Sat 11:04:58 PM 34.5400 -78.2922 95° East 350 403 12,600 -2,050 Descending Washington Center
Sat 11:05:55 PM 34.5300 -78.1786 96° East 345 397 10,600 -2,034 Descending Washington Center
Sat 11:06:56 PM 34.4964 -78.0792 112° Southeast 325 374 8,600 -2,150 Descending Washington Center
Sat 11:07:55 PM 34.4544 -77.9947 121° Southeast 303 349 6,300 -2,281 Descending Washington Center
Sat 11:08:57 PM 34.4100 -77.9156 124° Southeast 292 336 4,000 -1,902 Descending Washington Center
Sat 11:09:58 PM 34.3742 -77.8364 119° Southeast 282 325 2,400 -1,322 Descending Washington Center
Sat 11:10:55 PM 34.3328 -77.8153 157° South 203 234 1,400 -763 Descending Washington Center
Sat 11:11:56 PM 34.3111 -77.8472 231° Southwest 109 125 900 -492 Descending Washington Center

Login

Don't have an account? Register now (free) for customized features, flight alerts, and more!